sensor_id;sensor_type;location;lat;lon;timestamp;pressure;altitude;pressure_sealevel;temperature;humidity
35676;BME280;21790;42.668;23.298;2022-10-16T00:04:30;95324.00;;;16.04;46.74
35676;BME280;21790;42.668;23.298;2022-10-16T00:06:55;95334.41;;;16.04;46.73
35676;BME280;21790;42.668;23.298;2022-10-16T00:09:27;95342.38;;;16.11;47.00
35676;BME280;21790;42.668;23.298;2022-10-16T00:11:54;95332.47;;;16.10;46.97
35676;BME280;21790;42.668;23.298;2022-10-16T00:17:17;95345.38;;;15.93;47.47
35676;BME280;21790;42.668;23.298;2022-10-16T00:19:46;95342.50;;;15.87;47.51
35676;BME280;21790;42.668;23.298;2022-10-16T00:22:16;95349.50;;;15.97;47.62
35676;BME280;21790;42.668;23.298;2022-10-16T00:24:56;95349.78;;;15.84;47.62
35676;BME280;21790;42.668;23.298;2022-10-16T00:27:22;95345.75;;;15.71;48.00
35676;BME280;21790;42.668;23.298;2022-10-16T00:30:17;95353.44;;;15.76;47.99
35676;BME280;21790;42.668;23.298;2022-10-16T00:32:42;95359.59;;;15.41;48.68
35676;BME280;21790;42.668;23.298;2022-10-16T00:35:08;95357.69;;;15.47;48.53
35676;BME280;21790;42.668;23.298;2022-10-16T00:37:46;95353.03;;;15.68;48.29
35676;BME280;21790;42.668;23.298;2022-10-16T00:43:56;95352.94;;;15.77;47.44
35676;BME280;21790;42.668;23.298;2022-10-16T00:51:36;95350.63;;;15.61;47.74
35676;BME280;21790;42.668;23.298;2022-10-16T00:54:15;95343.44;;;15.55;47.86
35676;BME280;21790;42.668;23.298;2022-10-16T00:56:52;95346.78;;;15.73;47.15
35676;BME280;21790;42.668;23.298;2022-10-16T01:02:06;95347.66;;;15.26;48.07
35676;BME280;21790;42.668;23.298;2022-10-16T01:10:46;95355.28;;;15.17;47.75
35676;BME280;21790;42.668;23.298;2022-10-16T01:20:44;95350.47;;;15.02;47.93
35676;BME280;21790;42.668;23.298;2022-10-16T01:36:19;95337.56;;;15.67;46.27
35676;BME280;21790;42.668;23.298;2022-10-16T01:39:00;95346.97;;;15.55;46.59
35676;BME280;21790;42.668;23.298;2022-10-16T01:41:49;95346.81;;;15.49;46.84
35676;BME280;21790;42.668;23.298;2022-10-16T01:44:39;95337.56;;;15.29;47.22
35676;BME280;21790;42.668;23.298;2022-10-16T01:47:25;95348.09;;;15.10;47.86
35676;BME280;21790;42.668;23.298;2022-10-16T01:53:03;95357.22;;;14.87;48.60
35676;BME280;21790;42.668;23.298;2022-10-16T01:55:47;95359.00;;;14.75;48.73
35676;BME280;21790;42.668;23.298;2022-10-16T01:58:23;95361.53;;;14.88;48.42
35676;BME280;21790;42.668;23.298;2022-10-16T02:01:13;95353.59;;;14.72;48.86
35676;BME280;21790;42.668;23.298;2022-10-16T02:10:39;95360.78;;;14.87;48.40
35676;BME280;21790;42.668;23.298;2022-10-16T02:16:23;95373.38;;;14.74;48.63
35676;BME280;21790;42.668;23.298;2022-10-16T02:26:08;95388.34;;;14.43;49.60
35676;BME280;21790;42.668;23.298;2022-10-16T02:35:53;95390.25;;;14.28;50.00
35676;BME280;21790;42.668;23.298;2022-10-16T02:38:26;95392.72;;;14.26;50.03
35676;BME280;21790;42.668;23.298;2022-10-16T02:41:07;95385.31;;;14.23;49.70
35676;BME280;21790;42.668;23.298;2022-10-16T02:43:33;95389.75;;;14.30;49.58
35676;BME280;21790;42.668;23.298;2022-10-16T04:16:00;95412.47;;;14.37;47.29
35676;BME280;21790;42.668;23.298;2022-10-16T04:18:26;95405.72;;;14.20;47.38
35676;BME280;21790;42.668;23.298;2022-10-16T04:20:56;95419.75;;;14.25;47.61
35676;BME280;21790;42.668;23.298;2022-10-16T04:23:27;95410.06;;;14.12;47.77
35676;BME280;21790;42.668;23.298;2022-10-16T04:26:08;95407.47;;;13.99;47.82
35676;BME280;21790;42.668;23.298;2022-10-16T04:28:54;95422.41;;;14.11;47.89
35676;BME280;21790;42.668;23.298;2022-10-16T04:31:23;95417.97;;;13.95;47.97
35676;BME280;21790;42.668;23.298;2022-10-16T04:33:55;95422.91;;;14.00;47.92
35676;BME280;21790;42.668;23.298;2022-10-16T04:36:20;95422.31;;;13.96;47.58
35676;BME280;21790;42.668;23.298;2022-10-16T04:42:11;95425.84;;;13.88;48.47
35676;BME280;21790;42.668;23.298;2022-10-16T04:45:04;95430.41;;;14.27;47.00
35676;BME280;21790;42.668;23.298;2022-10-16T04:48:06;95431.31;;;14.24;46.94
35676;BME280;21790;42.668;23.298;2022-10-16T04:50:41;95428.28;;;14.04;47.16
35676;BME280;21790;42.668;23.298;2022-10-16T04:53:18;95441.91;;;14.02;47.42
35676;BME280;21790;42.668;23.298;2022-10-16T04:56:20;95443.91;;;13.92;47.62
35676;BME280;21790;42.668;23.298;2022-10-16T04:59:01;95448.69;;;13.92;47.89
35676;BME280;21790;42.668;23.298;2022-10-16T05:01:26;95458.13;;;13.58;48.34
35676;BME280;21790;42.668;23.298;2022-10-16T05:07:09;95459.81;;;14.01;47.70
35676;BME280;21790;42.668;23.298;2022-10-16T05:13:40;95460.88;;;13.94;48.02
35676;BME280;21790;42.668;23.298;2022-10-16T05:16:09;95459.59;;;14.13;47.88
35676;BME280;21790;42.668;23.298;2022-10-16T05:22:11;95469.97;;;14.22;47.87
35676;BME280;21790;42.668;23.298;2022-10-16T05:28:29;95469.75;;;14.53;47.24
35676;BME280;21790;42.668;23.298;2022-10-16T05:30:56;95472.47;;;14.71;46.68
35676;BME280;21790;42.668;23.298;2022-10-16T05:33:30;95475.25;;;14.71;46.84
35676;BME280;21790;42.668;23.298;2022-10-16T05:35:56;95482.13;;;15.18;58.26
35676;BME280;21790;42.668;23.298;2022-10-16T05:38:22;95481.56;;;15.37;47.58
35676;BME280;21790;42.668;23.298;2022-10-16T05:41:00;95471.59;;;16.08;44.88
35676;BME280;21790;42.668;23.298;2022-10-16T05:43:45;95477.06;;;16.02;44.53
35676;BME280;21790;42.668;23.298;2022-10-16T05:46:24;95476.84;;;15.53;45.74
35676;BME280;21790;42.668;23.298;2022-10-16T05:48:52;95481.00;;;15.24;46.46
35676;BME280;21790;42.668;23.298;2022-10-16T05:51:24;95484.56;;;15.25;46.75
35676;BME280;21790;42.668;23.298;2022-10-16T05:53:53;95490.50;;;15.41;46.55
35676;BME280;21790;42.668;23.298;2022-10-16T05:56:18;95489.25;;;15.42;46.91
35676;BME280;21790;42.668;23.298;2022-10-16T06:02:11;95497.28;;;16.26;45.37
35676;BME280;21790;42.668;23.298;2022-10-16T06:05:05;95505.66;;;16.56;45.40
35676;BME280;21790;42.668;23.298;2022-10-16T06:28:17;95526.34;;;18.44;41.82
35676;BME280;21790;42.668;23.298;2022-10-16T06:30:42;95529.38;;;18.40;41.46
35676;BME280;21790;42.668;23.298;2022-10-16T06:36:38;95530.75;;;19.34;41.27
35676;BME280;21790;42.668;23.298;2022-10-16T06:45:27;95534.41;;;19.45;39.70
35676;BME280;21790;42.668;23.298;2022-10-16T06:50:59;95541.41;;;19.61;39.59
35676;BME280;21790;42.668;23.298;2022-10-16T16:06:04;95605.22;;;22.29;29.87
35676;BME280;21790;42.668;23.298;2022-10-16T16:08:33;95614.91;;;22.34;29.75
35676;BME280;21790;42.668;23.298;2022-10-16T16:11:07;95610.03;;;22.40;30.70
35676;BME280;21790;42.668;23.298;2022-10-16T16:13:35;95614.44;;;22.24;30.58
35676;BME280;21790;42.668;23.298;2022-10-16T16:16:07;95616.00;;;22.20;30.55
35676;BME280;21790;42.668;23.298;2022-10-16T16:18:36;95618.44;;;22.51;30.32
35676;BME280;21790;42.668;23.298;2022-10-16T16:21:02;95624.84;;;22.46;29.95
35676;BME280;21790;42.668;23.298;2022-10-16T16:30:16;95625.38;;;22.39;30.89
35676;BME280;21790;42.668;23.298;2022-10-16T16:35:58;95632.66;;;21.56;31.56
35676;BME280;21790;42.668;23.298;2022-10-16T16:41:48;95647.25;;;21.33;32.48
35676;BME280;21790;42.668;23.298;2022-10-16T16:44:14;95653.56;;;21.11;32.23
35676;BME280;21790;42.668;23.298;2022-10-16T16:46:41;95656.09;;;20.98;32.91
35676;BME280;21790;42.668;23.298;2022-10-16T16:49:09;95663.25;;;21.04;32.46
35676;BME280;21790;42.668;23.298;2022-10-16T16:51:36;95667.41;;;21.14;33.15
35676;BME280;21790;42.668;23.298;2022-10-16T16:54:02;95670.16;;;21.03;33.15
35676;BME280;21790;42.668;23.298;2022-10-16T16:56:32;95673.31;;;20.63;34.30
35676;BME280;21790;42.668;23.298;2022-10-16T16:59:03;95678.50;;;20.81;34.20
35676;BME280;21790;42.668;23.298;2022-10-16T17:01:29;95681.50;;;20.61;33.79
35676;BME280;21790;42.668;23.298;2022-10-16T17:03:57;95681.22;;;20.59;33.76
35676;BME280;21790;42.668;23.298;2022-10-16T17:14:12;95685.00;;;20.44;34.62
35676;BME280;21790;42.668;23.298;2022-10-16T17:16:40;95691.81;;;20.32;34.53
35676;BME280;21790;42.668;23.298;2022-10-16T17:19:15;95690.66;;;20.56;34.48
35676;BME280;21790;42.668;23.298;2022-10-16T17:21:43;95686.72;;;20.36;34.52
35676;BME280;21790;42.668;23.298;2022-10-16T17:27:35;95694.00;;;20.17;35.72
35676;BME280;21790;42.668;23.298;2022-10-16T17:30:03;95687.19;;;19.92;36.17
35676;BME280;21790;42.668;23.298;2022-10-16T17:32:33;95697.63;;;19.92;36.20
35676;BME280;21790;42.668;23.298;2022-10-16T17:38:28;95706.00;;;19.86;36.25
35676;BME280;21790;42.668;23.298;2022-10-16T17:41:25;95698.38;;;19.87;36.07
35676;BME280;21790;42.668;23.298;2022-10-16T17:47:42;95711.56;;;19.81;36.22
35676;BME280;21790;42.668;23.298;2022-10-16T17:53:23;95710.41;;;19.61;37.39
35676;BME280;21790;42.668;23.298;2022-10-16T17:55:51;95705.38;;;19.71;37.16
35676;BME280;21790;42.668;23.298;2022-10-16T17:58:38;95709.91;;;19.63;37.36
35676;BME280;21790;42.668;23.298;2022-10-16T18:01:15;95716.78;;;19.36;37.44
35676;BME280;21790;42.668;23.298;2022-10-16T18:03:41;95701.97;;;19.10;37.54
35676;BME280;21790;42.668;23.298;2022-10-16T18:06:07;95709.34;;;19.33;37.76
35676;BME280;21790;42.668;23.298;2022-10-16T18:08:33;95704.13;;;19.20;37.96
35676;BME280;21790;42.668;23.298;2022-10-16T18:11:02;95717.75;;;19.07;37.80
35676;BME280;21790;42.668;23.298;2022-10-16T18:13:28;95726.06;;;19.22;37.39
35676;BME280;21790;42.668;23.298;2022-10-16T18:16:04;95722.41;;;19.16;38.16
35676;BME280;21790;42.668;23.298;2022-10-16T18:18:30;95724.78;;;18.97;37.94
35676;BME280;21790;42.668;23.298;2022-10-16T18:20:57;95726.16;;;19.07;37.45
35676;BME280;21790;42.668;23.298;2022-10-16T18:23:24;95726.22;;;19.13;37.18
35676;BME280;21790;42.668;23.298;2022-10-16T18:25:49;95731.06;;;19.12;36.62
35676;BME280;21790;42.668;23.298;2022-10-16T18:28:15;95735.78;;;19.27;36.06
35676;BME280;21790;42.668;23.298;2022-10-16T18:30:41;95740.06;;;19.22;36.18
35676;BME280;21790;42.668;23.298;2022-10-16T18:33:06;95742.63;;;19.00;36.18
35676;BME280;21790;42.668;23.298;2022-10-16T18:35:34;95743.16;;;19.04;37.88
35676;BME280;21790;42.668;23.298;2022-10-16T18:38:03;95742.47;;;19.09;37.51
35676;BME280;21790;42.668;23.298;2022-10-16T18:40:29;95752.91;;;18.88;37.91
35676;BME280;21790;42.668;23.298;2022-10-16T18:42:54;95752.00;;;18.97;37.93
35676;BME280;21790;42.668;23.298;2022-10-16T18:45:20;95754.59;;;18.80;38.35
35676;BME280;21790;42.668;23.298;2022-10-16T18:47:45;95767.47;;;18.72;38.61
35676;BME280;21790;42.668;23.298;2022-10-16T18:50:11;95764.75;;;18.77;38.53
35676;BME280;21790;42.668;23.298;2022-10-16T18:52:37;95764.03;;;18.62;38.76
35676;BME280;21790;42.668;23.298;2022-10-16T18:55:04;95767.72;;;18.54;38.86
35676;BME280;21790;42.668;23.298;2022-10-16T18:57:33;95774.28;;;18.51;39.47
35676;BME280;21790;42.668;23.298;2022-10-16T18:59:59;95779.88;;;18.65;39.13
35676;BME280;21790;42.668;23.298;2022-10-16T19:02:24;95780.50;;;18.40;39.48
35676;BME280;21790;42.668;23.298;2022-10-16T19:04:51;95792.50;;;18.26;39.82
35676;BME280;21790;42.668;23.298;2022-10-16T19:07:17;95794.69;;;18.36;39.56
35676;BME280;21790;42.668;23.298;2022-10-16T19:09:42;95800.41;;;18.27;39.54
35676;BME280;21790;42.668;23.298;2022-10-16T19:12:08;95803.56;;;18.35;39.09
35676;BME280;21790;42.668;23.298;2022-10-16T19:14:35;95803.19;;;18.27;40.03
35676;BME280;21790;42.668;23.298;2022-10-16T19:17:03;95797.72;;;18.18;40.34
35676;BME280;21790;42.668;23.298;2022-10-16T19:19:28;95808.22;;;18.23;40.46
35676;BME280;21790;42.668;23.298;2022-10-16T19:21:54;95812.38;;;18.13;40.57
35676;BME280;21790;42.668;23.298;2022-10-16T19:24:37;95807.56;;;18.14;40.70
35676;BME280;21790;42.668;23.298;2022-10-16T19:27:03;95808.31;;;18.29;39.75
35676;BME280;21790;42.668;23.298;2022-10-16T19:29:29;95818.63;;;18.23;40.50
35676;BME280;21790;42.668;23.298;2022-10-16T19:31:55;95812.34;;;18.28;40.50
35676;BME280;21790;42.668;23.298;2022-10-16T19:34:21;95821.66;;;18.19;40.60
35676;BME280;21790;42.668;23.298;2022-10-16T19:36:46;95826.84;;;18.12;40.71
35676;BME280;21790;42.668;23.298;2022-10-16T19:39:17;95829.84;;;18.23;40.58
35676;BME280;21790;42.668;23.298;2022-10-16T19:41:42;95828.22;;;18.02;40.88
35676;BME280;21790;42.668;23.298;2022-10-16T19:44:11;95823.78;;;18.10;40.81
35676;BME280;21790;42.668;23.298;2022-10-16T19:46:41;95827.63;;;18.12;40.54
35676;BME280;21790;42.668;23.298;2022-10-16T19:49:09;95824.66;;;18.01;40.67
35676;BME280;21790;42.668;23.298;2022-10-16T19:51:36;95828.22;;;18.02;40.47
35676;BME280;21790;42.668;23.298;2022-10-16T19:54:11;95829.38;;;17.95;40.67
35676;BME280;21790;42.668;23.298;2022-10-16T19:56:37;95829.56;;;17.91;40.63
35676;BME280;21790;42.668;23.298;2022-10-16T19:59:05;95840.00;;;17.91;40.50
35676;BME280;21790;42.668;23.298;2022-10-16T20:01:31;95840.94;;;18.03;39.24
35676;BME280;21790;42.668;23.298;2022-10-16T20:03:57;95838.38;;;17.99;40.07
35676;BME280;21790;42.668;23.298;2022-10-16T20:06:26;95847.81;;;18.16;39.98
35676;BME280;21790;42.668;23.298;2022-10-16T20:08:53;95846.72;;;18.14;39.88
35676;BME280;21790;42.668;23.298;2022-10-16T20:11:22;95847.13;;;18.21;39.01
35676;BME280;21790;42.668;23.298;2022-10-16T20:13:49;95842.19;;;18.02;40.75
35676;BME280;21790;42.668;23.298;2022-10-16T20:16:16;95846.81;;;17.90;40.89
35676;BME280;21790;42.668;23.298;2022-10-16T20:18:44;95854.53;;;17.80;40.87
35676;BME280;21790;42.668;23.298;2022-10-16T20:21:15;95856.41;;;17.83;40.96
35676;BME280;21790;42.668;23.298;2022-10-16T20:23:41;95847.97;;;17.69;40.64
35676;BME280;21790;42.668;23.298;2022-10-16T20:26:08;95855.34;;;17.57;41.34
35676;BME280;21790;42.668;23.298;2022-10-16T20:28:38;95861.69;;;17.81;40.78
35676;BME280;21790;42.668;23.298;2022-10-16T20:31:06;95856.50;;;17.50;41.28
35676;BME280;21790;42.668;23.298;2022-10-16T20:33:32;95859.41;;;17.56;41.13
35676;BME280;21790;42.668;23.298;2022-10-16T20:35:58;95856.50;;;17.50;41.06
35676;BME280;21790;42.668;23.298;2022-10-16T20:38:23;95864.19;;;17.41;41.13
35676;BME280;21790;42.668;23.298;2022-10-16T20:40:50;95866.03;;;17.44;41.43
35676;BME280;21790;42.668;23.298;2022-10-16T20:43:17;95867.09;;;17.46;41.62
35676;BME280;21790;42.668;23.298;2022-10-16T20:45:44;95866.97;;;17.41;41.91
35676;BME280;21790;42.668;23.298;2022-10-16T20:48:11;95877.06;;;17.24;42.30
35676;BME280;21790;42.668;23.298;2022-10-16T20:50:39;95860.03;;;17.36;41.98
35676;BME280;21790;42.668;23.298;2022-10-16T20:53:04;95866.91;;;17.11;42.48
35676;BME280;21790;42.668;23.298;2022-10-16T20:55:33;95860.13;;;17.27;42.51
35676;BME280;21790;42.668;23.298;2022-10-16T20:57:59;95864.03;;;17.21;42.39
35676;BME280;21790;42.668;23.298;2022-10-16T21:00:25;95864.16;;;17.26;41.92
35676;BME280;21790;42.668;23.298;2022-10-16T21:02:51;95873.00;;;17.25;42.12
35676;BME280;21790;42.668;23.298;2022-10-16T21:05:17;95864.47;;;17.04;42.62
35676;BME280;21790;42.668;23.298;2022-10-16T21:07:43;95872.72;;;16.99;42.65
35676;BME280;21790;42.668;23.298;2022-10-16T21:10:09;95875.16;;;16.82;43.14
35676;BME280;21790;42.668;23.298;2022-10-16T21:12:34;95867.13;;;16.99;42.77
35676;BME280;21790;42.668;23.298;2022-10-16T21:15:00;95872.84;;;17.04;42.76
35676;BME280;21790;42.668;23.298;2022-10-16T21:17:25;95860.66;;;16.69;43.20
35676;BME280;21790;42.668;23.298;2022-10-16T21:19:51;95873.34;;;16.70;43.49
35676;BME280;21790;42.668;23.298;2022-10-16T21:22:16;95875.50;;;16.75;43.31
35676;BME280;21790;42.668;23.298;2022-10-16T21:24:44;95881.38;;;16.77;43.19
35676;BME280;21790;42.668;23.298;2022-10-16T21:27:10;95881.00;;;16.60;43.62
35676;BME280;21790;42.668;23.298;2022-10-16T21:29:35;95880.13;;;16.78;43.33
35676;BME280;21790;42.668;23.298;2022-10-16T21:32:01;95884.94;;;16.78;43.20
35676;BME280;21790;42.668;23.298;2022-10-16T21:34:29;95887.28;;;16.79;43.14
35676;BME280;21790;42.668;23.298;2022-10-16T21:36:55;95887.03;;;16.68;43.31
35676;BME280;21790;42.668;23.298;2022-10-16T21:39:21;95882.69;;;16.67;43.27
35676;BME280;21790;42.668;23.298;2022-10-16T21:41:49;95885.28;;;16.70;43.60
35676;BME280;21790;42.668;23.298;2022-10-16T21:44:16;95887.03;;;16.68;43.27
35676;BME280;21790;42.668;23.298;2022-10-16T21:46:43;95895.25;;;16.62;43.48
35676;BME280;21790;42.668;23.298;2022-10-16T21:49:12;95892.94;;;16.61;43.52
35676;BME280;21790;42.668;23.298;2022-10-16T21:51:41;95902.56;;;16.51;43.68
35676;BME280;21790;42.668;23.298;2022-10-16T21:54:10;95898.78;;;16.72;43.48
35676;BME280;21790;42.668;23.298;2022-10-16T21:56:36;95902.22;;;16.67;43.06
35676;BME280;21790;42.668;23.298;2022-10-16T21:59:02;95900.38;;;16.55;43.27
35676;BME280;21790;42.668;23.298;2022-10-16T22:01:28;95907.50;;;16.56;43.48
35676;BME280;21790;42.668;23.298;2022-10-16T22:03:55;95916.19;;;16.58;43.41
35676;BME280;21790;42.668;23.298;2022-10-16T22:06:23;95923.78;;;16.66;43.30
35676;BME280;21790;42.668;23.298;2022-10-16T22:08:51;95929.22;;;16.52;43.45
35676;BME280;21790;42.668;23.298;2022-10-16T22:11:22;95928.47;;;16.42;43.77
35676;BME280;21790;42.668;23.298;2022-10-16T22:13:49;95927.88;;;16.38;43.85
35676;BME280;21790;42.668;23.298;2022-10-16T22:16:18;95934.22;;;16.39;43.58
35676;BME280;21790;42.668;23.298;2022-10-16T22:18:44;95934.38;;;16.44;43.62
35676;BME280;21790;42.668;23.298;2022-10-16T22:21:09;95938.09;;;16.41;43.51
35676;BME280;21790;42.668;23.298;2022-10-16T22:23:35;95934.75;;;16.10;44.38
35676;BME280;21790;42.668;23.298;2022-10-16T22:26:04;95938.31;;;16.19;43.84
35676;BME280;21790;42.668;23.298;2022-10-16T22:28:30;95939.56;;;16.18;43.81
35676;BME280;21790;42.668;23.298;2022-10-16T22:31:00;95944.81;;;16.25;43.81
35676;BME280;21790;42.668;23.298;2022-10-16T22:33:26;95951.16;;;16.26;43.64
35676;BME280;21790;42.668;23.298;2022-10-16T22:35:51;95945.09;;;16.27;43.60
35676;BME280;21790;42.668;23.298;2022-10-16T22:38:17;95956.44;;;16.15;43.82
35676;BME280;21790;42.668;23.298;2022-10-16T22:40:42;95951.00;;;16.29;43.50
35676;BME280;21790;42.668;23.298;2022-10-16T22:43:08;95957.22;;;16.15;43.72
35676;BME280;21790;42.668;23.298;2022-10-16T22:45:36;95956.16;;;16.13;43.75
35676;BME280;21790;42.668;23.298;2022-10-16T22:48:03;95952.88;;;16.05;44.00
35676;BME280;21790;42.668;23.298;2022-10-16T22:50:29;95958.16;;;15.94;44.18
35676;BME280;21790;42.668;23.298;2022-10-16T22:56:30;95958.66;;;15.74;44.66
35676;BME280;21790;42.668;23.298;2022-10-16T22:58:56;95957.41;;;15.94;44.19
35676;BME280;21790;42.668;23.298;2022-10-16T23:01:33;95956.91;;;16.04;44.04
35676;BME280;21790;42.668;23.298;2022-10-16T23:03:59;95957.22;;;16.06;43.77
35676;BME280;21790;42.668;23.298;2022-10-16T23:06:26;95966.25;;;15.92;44.09
35676;BME280;21790;42.668;23.298;2022-10-16T23:08:57;95969.16;;;15.88;44.11
35676;BME280;21790;42.668;23.298;2022-10-16T23:11:25;95959.13;;;15.73;44.38
35676;BME280;21790;42.668;23.298;2022-10-16T23:13:51;95971.81;;;15.65;44.72
35676;BME280;21790;42.668;23.298;2022-10-16T23:16:18;95962.03;;;15.87;43.62
35676;BME280;21790;42.668;23.298;2022-10-16T23:18:45;95957.25;;;15.79;43.21
35676;BME280;21790;42.668;23.298;2022-10-16T23:21:13;95970.09;;;15.95;43.19
35676;BME280;21790;42.668;23.298;2022-10-16T23:23:40;95973.84;;;15.92;43.37
35676;BME280;21790;42.668;23.298;2022-10-16T23:26:17;95972.75;;;15.80;43.72
35676;BME280;21790;42.668;23.298;2022-10-16T23:28:43;95977.25;;;15.59;44.10
35676;BME280;21790;42.668;23.298;2022-10-16T23:31:10;95977.84;;;15.72;43.92
35676;BME280;21790;42.668;23.298;2022-10-16T23:33:38;95968.41;;;15.70;44.03
35676;BME280;21790;42.668;23.298;2022-10-16T23:36:15;95963.41;;;15.46;44.44
35676;BME280;21790;42.668;23.298;2022-10-16T23:42:09;95969.91;;;15.34;44.55
35676;BME280;21790;42.668;23.298;2022-10-16T23:44:34;95968.38;;;15.42;44.29
35676;BME280;21790;42.668;23.298;2022-10-16T23:47:00;95979.19;;;15.49;43.99
35676;BME280;21790;42.668;23.298;2022-10-16T23:49:25;95963.25;;;15.32;44.44
35676;BME280;21790;42.668;23.298;2022-10-16T23:51:51;95982.03;;;15.59;43.40
35676;BME280;21790;42.668;23.298;2022-10-16T23:54:16;95978.00;;;15.60;43.59
35676;BME280;21790;42.668;23.298;2022-10-16T23:56:42;95985.13;;;15.61;43.53
35676;BME280;21790;42.668;23.298;2022-10-16T23:59:07;95968.03;;;15.40;43.54
